createdAt,value
2023-10-07T00:07:39.151Z,15.81
2023-10-07T00:22:42.929Z,15.72
2023-10-07T00:37:45.735Z,15.76
2023-10-07T00:52:55.664Z,15.86
2023-10-07T01:07:59.440Z,15.93
2023-10-07T01:23:04.901Z,16.08
2023-10-07T01:38:10.843Z,16.24
2023-10-07T01:53:14.279Z,16.41
2023-10-07T02:08:24.264Z,16.50
2023-10-07T02:23:38.785Z,16.49
2023-10-07T02:38:44.621Z,16.44
2023-10-07T02:53:47.423Z,16.36
2023-10-07T03:08:52.987Z,16.24
2023-10-07T03:23:59.566Z,16.26
2023-10-07T03:39:23.598Z,16.29
2023-10-07T03:54:30.784Z,16.20
2023-10-07T04:09:34.620Z,16.09
2023-10-07T04:24:44.596Z,16.04
2023-10-07T04:39:47.359Z,16.12
2023-10-07T04:54:50.000Z,16.37
2023-10-07T05:09:53.358Z,16.86
2023-10-07T05:25:00.872Z,17.29
2023-10-07T05:40:04.640Z,17.63
2023-10-07T05:55:10.614Z,17.92
2023-10-07T06:10:13.320Z,18.20
2023-10-07T06:25:19.445Z,18.44
2023-10-07T06:40:31.228Z,19.79
2023-10-07T06:55:42.295Z,21.40
2023-10-07T07:10:45.264Z,25.96
2023-10-07T07:26:00.539Z,30.41
2023-10-07T07:41:11.137Z,31.02
2023-10-07T07:56:14.732Z,29.74
2023-10-07T08:11:20.786Z,28.71
2023-10-07T08:26:24.997Z,27.37
2023-10-07T08:41:28.285Z,27.17
2023-10-07T08:56:31.941Z,25.78
2023-10-07T10:19:12.647Z,20.52
2023-10-07T10:34:16.184Z,20.70
2023-10-07T10:49:22.295Z,20.78
2023-10-07T11:04:25.537Z,20.81
2023-10-07T11:19:28.256Z,21.27
2023-10-07T11:34:39.076Z,21.84
2023-10-07T11:49:42.428Z,21.78
2023-10-07T12:04:48.631Z,21.13
2023-10-07T12:19:51.793Z,20.78
2023-10-07T12:34:57.479Z,20.72
2023-10-07T12:50:00.324Z,20.66
2023-10-07T13:05:03.104Z,20.38
2023-10-07T13:20:08.592Z,20.09
2023-10-07T13:35:20.511Z,21.61
2023-10-07T13:50:27.024Z,20.83
2023-10-07T14:05:30.224Z,20.17
2023-10-07T14:20:34.105Z,21.54
2023-10-07T14:35:37.933Z,20.71
2023-10-07T14:50:41.481Z,21.31
2023-10-07T15:05:45.523Z,20.28
2023-10-07T15:20:48.593Z,20.53
2023-10-07T15:35:58.192Z,20.83
2023-10-07T15:51:01.402Z,20.79
2023-10-07T16:06:06.537Z,21.14
2023-10-07T16:21:17.703Z,21.18
2023-10-07T16:36:20.494Z,20.01
2023-10-07T16:51:23.369Z,20.57
2023-10-07T17:06:26.189Z,22.21
2023-10-07T17:21:28.980Z,21.47
2023-10-07T17:36:32.138Z,21.55
2023-10-07T17:51:36.305Z,22.08
2023-10-07T18:06:38.977Z,20.67
2023-10-07T18:21:42.236Z,20.74
2023-10-07T18:36:45.593Z,21.57
2023-10-07T18:51:48.595Z,20.40
2023-10-07T19:06:51.338Z,20.30
2023-10-07T19:21:55.514Z,21.22
2023-10-07T19:36:59.461Z,20.11
2023-10-07T19:52:02.419Z,20.68
2023-10-07T20:07:05.357Z,20.08
2023-10-07T20:22:08.768Z,20.15
2023-10-07T20:37:13.297Z,19.25
2023-10-07T20:52:15.983Z,19.44
2023-10-07T21:07:18.697Z,20.10
2023-10-07T21:22:21.611Z,19.71
2023-10-07T21:37:24.426Z,20.12
2023-10-07T21:52:27.349Z,19.46
2023-10-07T22:07:30.070Z,18.67
2023-10-07T22:22:32.706Z,17.15
2023-10-07T22:37:39.383Z,16.61
2023-10-07T22:52:42.240Z,15.79
2023-10-07T23:07:47.280Z,17.73
2023-10-07T23:22:57.682Z,15.96
2023-10-07T23:38:19.154Z,15.26
2023-10-07T23:53:26.084Z,16.44
